createdAt,value
2018-08-06T00:01:20.785Z,1.93
2018-08-06T00:03:48.846Z,1.60
2018-08-06T00:06:16.905Z,1.63
2018-08-06T00:08:44.985Z,1.75
2018-08-06T00:11:13.049Z,1.50
2018-08-06T00:13:41.140Z,1.40
2018-08-06T00:16:09.185Z,1.50
2018-08-06T00:18:37.260Z,1.50
2018-08-06T00:21:05.310Z,1.40
2018-08-06T00:23:33.390Z,1.47
2018-08-06T00:26:01.457Z,1.50
2018-08-06T00:28:29.546Z,1.60
2018-08-06T00:30:57.626Z,1.60
2018-08-06T00:33:25.708Z,1.60
2018-08-06T00:35:54.068Z,1.80
2018-08-06T00:38:22.089Z,1.80
2018-08-06T00:40:50.150Z,1.50
2018-08-06T00:43:18.198Z,1.70
2018-08-06T00:45:46.281Z,1.80
2018-08-06T00:53:08.890Z,1.70
2018-08-06T02:11:47.982Z,1.80
2018-08-06T02:14:16.026Z,1.90
2018-08-06T02:16:44.069Z,1.73
2018-08-06T02:19:12.125Z,2.00
2018-08-06T02:21:40.180Z,1.67
2018-08-06T02:24:08.233Z,1.77
2018-08-06T02:26:36.278Z,1.70
2018-08-06T02:29:04.522Z,1.87
2018-08-06T02:31:32.613Z,2.07
2018-08-06T02:34:00.718Z,1.90
2018-08-06T02:36:28.773Z,1.60
2018-08-06T02:38:56.806Z,1.90
2018-08-06T02:41:24.873Z,1.80
2018-08-06T02:43:53.134Z,1.90
2018-08-06T02:46:21.190Z,2.30
2018-08-06T02:48:49.233Z,1.90
2018-08-06T02:51:17.298Z,2.00
2018-08-06T02:53:51.094Z,1.80
2018-08-06T02:56:19.129Z,1.90
2018-08-06T02:58:47.174Z,1.80
2018-08-06T03:01:15.234Z,1.90
2018-08-06T03:03:43.358Z,2.10
2018-08-06T03:06:11.430Z,2.23
2018-08-06T03:08:39.485Z,2.10
2018-08-06T03:11:07.547Z,2.37
2018-08-06T03:13:35.607Z,2.03
2018-08-06T03:16:03.657Z,2.10
2018-08-06T03:18:31.744Z,2.20
2018-08-06T03:20:59.784Z,2.00
2018-08-06T03:23:27.878Z,1.80
2018-08-06T03:25:55.918Z,2.00
2018-08-06T03:28:23.965Z,2.00
2018-08-06T03:30:52.031Z,1.90
2018-08-06T03:33:20.077Z,2.00
2018-08-06T03:35:48.122Z,2.00
2018-08-06T03:38:16.178Z,2.00
2018-08-06T03:40:44.243Z,1.90
2018-08-06T03:43:12.310Z,2.30
2018-08-06T03:45:40.388Z,2.07
2018-08-06T03:48:08.462Z,1.93
2018-08-06T03:50:36.518Z,2.10
2018-08-06T03:53:04.341Z,2.05
2018-08-06T04:05:21.939Z,2.40
2018-08-06T04:07:50.553Z,2.20
2018-08-06T04:10:18.598Z,2.40
2018-08-06T04:12:46.646Z,2.57
2018-08-06T04:15:14.480Z,2.67
2018-08-06T04:17:42.863Z,2.53
2018-08-06T04:22:39.254Z,2.83
2018-08-06T04:25:07.566Z,2.45
2018-08-06T04:27:35.880Z,2.70
2018-08-06T04:39:54.403Z,2.83
2018-08-06T04:42:22.455Z,2.97
2018-08-06T04:47:17.917Z,2.50
2018-08-06T04:49:45.966Z,2.53
2018-08-06T04:52:14.190Z,2.93
2018-08-06T04:54:42.233Z,2.70
2018-08-06T04:57:10.269Z,2.33
2018-08-06T04:59:38.366Z,2.43
2018-08-06T05:02:06.539Z,2.70
2018-08-06T05:07:02.023Z,2.50
2018-08-06T05:09:38.893Z,2.30
2018-08-06T05:12:07.361Z,2.57
2018-08-06T05:17:03.110Z,2.90
2018-08-06T05:24:25.947Z,2.70
2018-08-06T05:26:53.999Z,2.60
2018-08-06T05:29:22.038Z,2.60
2018-08-06T05:31:50.086Z,2.70
2018-08-06T05:34:17.905Z,2.60
2018-08-06T05:36:45.946Z,2.60
2018-08-06T05:39:13.997Z,2.53
2018-08-06T05:56:26.423Z,2.93
2018-08-06T06:01:21.875Z,2.70
2018-08-06T06:18:34.066Z,3.27
2018-08-06T06:30:51.482Z,2.90
2018-08-06T06:33:19.554Z,3.03
2018-08-06T06:35:47.618Z,2.70
2018-08-06T06:38:15.689Z,2.70
2018-08-06T06:40:43.834Z,3.20
2018-08-06T06:43:11.998Z,2.80
2018-08-06T06:55:29.662Z,3.20
2018-08-06T06:57:57.721Z,2.90
2018-08-06T07:07:47.956Z,2.90
2018-08-06T07:10:16.055Z,3.20
2018-08-06T07:15:14.265Z,3.23
2018-08-06T07:25:06.713Z,3.07
2018-08-06T07:27:34.749Z,3.23
2018-08-06T09:30:25.302Z,4.10
2018-08-06T09:42:46.195Z,4.03
2018-08-06T09:45:15.385Z,3.70
2018-08-06T10:02:34.217Z,3.80
2018-08-06T10:12:24.462Z,3.83
2018-08-06T10:32:04.086Z,4.15
2018-08-06T10:34:31.920Z,3.87
2018-08-06T12:35:00.261Z,3.20
2018-08-06T14:45:13.925Z,3.40
2018-08-06T14:47:42.009Z,2.95
2018-08-06T15:18:14.723Z,3.05
2018-08-06T15:40:21.252Z,3.52
2018-08-06T15:45:16.726Z,3.20
2018-08-06T15:55:07.941Z,3.50
2018-08-06T16:07:25.466Z,3.45
2018-08-06T16:19:42.854Z,3.30
2018-08-06T16:22:10.893Z,3.22
2018-08-06T16:24:38.958Z,3.50
2018-08-06T16:32:01.767Z,3.08
2018-08-06T16:34:29.833Z,3.10
2018-08-06T16:36:57.874Z,3.42
2018-08-06T16:46:48.169Z,3.50
2018-08-06T17:23:39.920Z,3.60
2018-08-06T17:26:07.961Z,3.17
2018-08-06T17:28:36.034Z,3.17
2018-08-06T17:31:04.081Z,2.90
2018-08-06T17:33:32.131Z,3.40
2018-08-06T17:35:59.977Z,3.40
2018-08-06T17:38:28.025Z,3.50
2018-08-06T17:55:40.340Z,3.50
2018-08-06T17:58:08.142Z,3.60
2018-08-06T18:07:59.014Z,3.60
2018-08-06T18:10:27.071Z,3.45
2018-08-06T18:12:55.127Z,6.05
2018-08-06T18:15:23.175Z,4.10
2018-08-06T18:17:51.218Z,3.85
2018-08-06T18:25:16.434Z,2.20
2018-08-06T18:27:45.493Z,1.50
2018-08-06T18:30:16.090Z,1.25
2018-08-06T18:35:13.478Z,2.75
2018-08-06T18:37:41.535Z,4.30
2018-08-06T18:40:10.209Z,3.60
2018-08-06T18:42:38.281Z,3.58
2018-08-06T18:45:15.191Z,3.52
2018-08-06T18:47:44.032Z,3.80
2018-08-06T18:50:12.998Z,3.67
2018-08-06T18:52:41.703Z,4.00
2018-08-06T18:55:11.206Z,3.85
2018-08-06T18:57:39.492Z,4.40
2018-08-06T19:00:09.948Z,3.90
2018-08-06T19:02:38.070Z,4.37
2018-08-06T19:05:06.546Z,4.50
2018-08-06T19:15:02.343Z,4.70
2018-08-06T19:17:30.425Z,4.87
2018-08-06T19:22:26.115Z,4.65
2018-08-06T19:24:59.361Z,6.60
2018-08-06T19:49:46.262Z,7.17
2018-08-06T19:52:14.342Z,5.33
2018-08-06T19:54:42.411Z,5.10
2018-08-06T19:59:37.858Z,4.92
2018-08-06T20:09:28.185Z,4.62
2018-08-06T20:11:56.270Z,4.80
2018-08-06T20:14:24.310Z,4.08
2018-08-06T20:16:52.352Z,4.33
2018-08-06T20:19:20.422Z,4.30
2018-08-06T23:31:20.397Z,5.40
2018-08-06T23:48:32.787Z,6.20
2018-08-06T23:51:00.870Z,6.47
2018-08-06T23:53:28.934Z,6.42
2018-08-06T23:55:56.842Z,6.62
2018-08-06T23:58:24.906Z,6.70
